Time;durP1;ratioP1;P1;durP2;ratioP2;P2;SDS_P1;SDS_P2;PMS_P1;PMS_P2;Temp;Humidity;BMP_temperature;BMP_pressure;BME280_temperature;BME280_humidity;BME280_pressure;Samples;Min_cycle;Max_cycle;Signal;HPM_P1;HPM_P2
2021/10/27 00:01:53;;;;;;;16.30;11.95;;;;;;;11.18;91.68;100264.31;5050548;28;20211;-74
2021/10/27 00:04:19;;;;;;;14.10;11.65;;;;;;;11.21;91.50;100269.53;5050489;28;20193;-73
2021/10/27 00:06:46;;;;;;;15.05;11.32;;;;;;;11.41;89.59;100261.31;5052060;28;20284;-74
2021/10/27 00:09:14;;;;;;;13.82;10.18;;;;;;;11.43;89.13;100261.22;5054114;28;20196;-74
2021/10/27 00:11:40;;;;;;;17.80;11.60;;;;;;;11.32;89.24;100267.16;5048214;28;20636;-74
2021/10/27 00:14:08;;;;;;;15.90;10.70;;;;;;;11.29;89.88;100266.47;5054072;28;20186;-74
2021/10/27 00:16:36;;;;;;;14.10;11.25;;;;;;;11.23;90.14;100267.63;5054327;28;20186;-73
2021/10/27 00:19:02;;;;;;;15.68;11.05;;;;;;;11.08;90.80;100274.69;5054453;28;20670;-74
2021/10/27 00:21:29;;;;;;;14.88;10.32;;;;;;;11.03;92.04;100285.69;5046863;28;20207;-74
2021/10/27 00:23:56;;;;;;;15.27;11.55;;;;;;;10.95;93.32;100282.47;5054466;28;20292;-74
2021/10/27 00:26:23;;;;;;;14.43;10.82;;;;;;;10.98;93.65;100279.63;5054063;28;20288;-74
2021/10/27 00:28:51;;;;;;;13.93;11.48;;;;;;;11.06;92.50;100277.44;5049744;28;20229;-73
2021/10/27 00:31:19;;;;;;;13.48;10.40;;;;;;;11.02;92.59;100281.22;5053979;28;20193;-74
2021/10/27 00:33:46;;;;;;;16.30;11.90;;;;;;;10.83;93.93;100280.38;5054594;28;20200;-73
2021/10/27 00:36:12;;;;;;;17.52;12.23;;;;;;;11.05;92.80;100277.50;5054088;28;20189;-73
2021/10/27 00:38:39;;;;;;;14.95;10.45;;;;;;;10.95;93.12;100282.47;5054382;28;20269;-73
2021/10/27 00:41:07;;;;;;;15.00;11.10;;;;;;;11.04;93.17;100276.63;5053754;28;20239;-71
2021/10/27 00:43:34;;;;;;;15.73;11.55;;;;;;;10.98;93.77;100284.16;5054081;28;20288;-74
2021/10/27 00:46:01;;;;;;;16.67;12.25;;;;;;;10.95;93.51;100285.19;5053937;28;20208;-73
2021/10/27 00:48:29;;;;;;;13.57;11.05;;;;;;;10.98;92.80;100285.00;5053808;28;20277;-74
2021/10/27 00:50:56;;;;;;;14.88;10.75;;;;;;;11.02;93.12;100285.75;5053750;28;20186;-74
2021/10/27 00:53:23;;;;;;;14.50;11.65;;;;;;;10.94;93.93;100282.53;5054079;28;20691;-73
2021/10/27 00:55:51;;;;;;;14.93;12.05;;;;;;;10.81;94.94;100293.06;5053555;28;20185;-73
2021/10/27 00:58:18;;;;;;;15.57;11.10;;;;;;;10.90;94.30;100295.31;5046255;28;20185;-74
2021/10/27 01:00:45;;;;;;;13.90;11.25;;;;;;;10.68;95.81;100292.75;5053859;28;20501;-73
2021/10/27 01:03:12;;;;;;;14.25;11.02;;;;;;;10.69;96.52;100290.94;5053845;28;20276;-74
2021/10/27 01:05:39;;;;;;;14.85;11.23;;;;;;;10.79;95.49;100297.66;5053642;28;20193;-74
2021/10/27 01:08:06;;;;;;;12.82;10.77;;;;;;;10.69;96.22;100294.50;5052984;28;20208;-74
2021/10/27 01:10:33;;;;;;;15.30;9.95;;;;;;;10.75;95.86;100291.53;5053507;28;20185;-74
2021/10/27 01:13:00;;;;;;;12.13;10.65;;;;;;;10.74;95.99;100291.59;5053470;28;20223;-73
2021/10/27 01:15:26;;;;;;;12.98;11.65;;;;;;;10.87;95.30;100298.13;5052792;28;20275;-72
2021/10/27 01:17:54;;;;;;;13.43;10.27;;;;;;;10.88;95.14;100289.13;5052630;28;20204;-73
2021/10/27 01:20:22;;;;;;;12.02;10.00;;;;;;;10.95;94.05;100301.34;5053385;28;20205;-75
2021/10/27 01:22:48;;;;;;;11.50;9.35;;;;;;;10.90;93.90;100299.81;5053334;28;20537;-73
2021/10/27 01:25:15;;;;;;;12.98;10.30;;;;;;;10.72;94.99;100296.16;5052834;28;20181;-74
2021/10/27 01:27:44;;;;;;;15.80;10.50;;;;;;;10.72;96.18;100299.75;5053257;28;20293;-73
2021/10/27 01:30:13;;;;;;;12.10;9.23;;;;;;;10.91;94.29;100299.75;5052340;28;20223;-73
2021/10/27 01:32:40;;;;;;;10.90;9.80;;;;;;;10.95;93.16;100301.34;5053281;28;20634;-73
2021/10/27 01:35:08;;;;;;;11.60;10.30;;;;;;;10.76;94.80;100297.78;5053142;28;20658;-73
2021/10/27 01:37:37;;;;;;;12.95;10.32;;;;;;;10.69;95.46;100294.50;5052695;28;20189;-73
2021/10/27 01:40:05;;;;;;;11.30;10.02;;;;;;;10.69;95.12;100296.31;5045349;28;20299;-73
2021/10/27 01:42:32;;;;;;;14.80;10.40;;;;;;;10.66;95.44;100296.47;5052768;28;20296;-73
2021/10/27 01:44:59;;;;;;;15.52;10.38;;;;;;;10.79;95.09;100300.34;5052784;28;20203;-73
2021/10/27 01:47:26;;;;;;;18.92;10.52;;;;;;;10.87;93.70;100298.13;5052400;28;20204;-73
2021/10/27 01:49:53;;;;;;;10.85;9.75;;;;;;;10.87;93.93;100295.44;5051403;28;20194;-73
2021/10/27 01:52:20;;;;;;;10.88;9.57;;;;;;;10.68;95.44;100292.75;5052361;28;20192;-73
2021/10/27 01:54:48;;;;;;;11.65;9.90;;;;;;;10.88;94.63;100291.81;5052717;28;20196;-72
2021/10/27 01:57:15;;;;;;;14.27;10.27;;;;;;;10.82;94.06;100292.97;5051958;28;20193;-73
2021/10/27 01:59:41;;;;;;;12.30;10.43;;;;;;;10.71;94.73;100292.59;5052231;28;20185;-72
2021/10/27 02:02:08;;;;;;;13.00;10.10;;;;;;;10.72;94.91;100293.47;5052488;28;20202;-73
2021/10/27 02:04:34;;;;;;;12.10;10.57;;;;;;;10.76;94.58;100290.59;5052147;28;20563;-72
2021/10/27 02:07:02;;;;;;;14.75;11.25;;;;;;;10.78;94.31;100296.75;5051903;28;20284;-72
2021/10/27 02:09:28;;;;;;;16.23;10.70;;;;;;;10.80;94.42;100286.78;5052489;28;20257;-73
2021/10/27 02:11:56;;;;;;;12.60;9.60;;;;;;;10.70;95.79;100285.50;5052287;28;20272;-72
2021/10/27 02:14:23;;;;;;;13.95;9.40;;;;;;;10.72;95.23;100282.69;5052747;28;20269;-72
2021/10/27 02:16:50;;;;;;;12.90;11.07;;;;;;;10.70;95.70;100282.78;5051849;28;20196;-72
2021/10/27 02:19:17;;;;;;;11.00;9.82;;;;;;;10.79;95.44;100278.78;5052015;28;20194;-73
2021/10/27 02:21:44;;;;;;;12.38;10.38;;;;;;;10.76;95.03;100279.81;5051861;28;20209;-74
2021/10/27 02:24:10;;;;;;;11.45;9.98;;;;;;;10.75;94.25;100277.19;5052276;28;20197;-74
2021/10/27 02:26:37;;;;;;;12.27;10.15;;;;;;;10.65;96.01;100271.38;5051974;28;20200;-74
2021/10/27 02:29:05;;;;;;;16.85;9.80;;;;;;;10.79;95.45;100270.72;5051148;28;20235;-74
2021/10/27 02:31:32;;;;;;;11.80;9.73;;;;;;;10.74;95.12;100264.66;5051985;28;20196;-73
2021/10/27 02:33:58;;;;;;;10.55;8.70;;;;;;;10.80;94.93;100269.75;5051946;28;20195;-74
2021/10/27 02:36:26;;;;;;;12.48;10.40;;;;;;;10.93;94.09;100257.44;5051138;28;20201;-73
2021/10/27 02:38:53;;;;;;;15.73;14.18;;;;;;;10.80;94.63;100265.22;5051857;28;20185;-74
2021/10/27 02:41:20;;;;;;;15.52;11.40;;;;;;;10.99;93.51;100264.31;5052018;28;20257;-73
2021/10/27 02:43:46;;;;;;;10.75;9.63;;;;;;;11.11;92.44;100257.47;5046842;28;20606;-73
2021/10/27 02:46:15;;;;;;;14.45;9.68;;;;;;;11.00;92.30;100260.69;5052098;28;20189;-73
2021/10/27 02:48:41;;;;;;;9.82;8.82;;;;;;;10.99;93.07;100258.94;5050806;28;20204;-74
2021/10/27 02:51:08;;;;;;;12.13;10.05;;;;;;;10.82;94.45;100259.78;5051562;28;20185;-74
2021/10/27 02:53:35;;;;;;;12.98;10.45;;;;;;;10.95;93.79;100254.66;5051159;28;20227;-74
2021/10/27 02:56:01;;;;;;;11.88;8.82;;;;;;;11.00;92.97;100249.91;5051220;28;20280;-72
2021/10/27 02:58:28;;;;;;;10.20;9.13;;;;;;;10.95;93.14;100255.53;5051286;28;20657;-73
2021/10/27 03:00:55;;;;;;;15.63;9.23;;;;;;;11.04;92.30;100249.69;5051318;28;20192;-72
2021/10/27 03:03:23;;;;;;;10.82;8.95;;;;;;;10.92;92.98;100258.41;5049086;28;20217;-72
2021/10/27 03:05:50;;;;;;;10.80;9.05;;;;;;;10.81;94.65;100263.44;5051555;28;20185;-72
2021/10/27 03:08:16;;;;;;;13.18;8.60;;;;;;;10.81;94.23;100252.66;5051491;28;20631;-73
2021/10/27 03:10:43;;;;;;;12.50;8.70;;;;;;;10.92;94.50;100257.50;5050945;28;20212;-73
2021/10/27 03:13:10;;;;;;;10.80;9.30;;;;;;;10.91;93.94;100250.38;5051369;28;20238;-73
2021/10/27 03:15:37;;;;;;;9.30;8.40;;;;;;;10.81;93.89;100247.28;5051276;28;20200;-72
2021/10/27 03:18:03;;;;;;;13.85;9.95;;;;;;;10.82;95.07;100257.94;5051468;28;20186;-73
2021/10/27 03:20:32;;;;;;;11.75;8.45;;;;;;;10.74;95.65;100251.19;5051241;28;20204;-73
2021/10/27 03:22:58;;;;;;;12.75;9.65;;;;;;;10.99;93.93;100253.53;5050940;28;20209;-73
2021/10/27 03:25:25;;;;;;;14.30;9.18;;;;;;;11.01;93.40;100252.53;5042580;28;20306;-74
2021/10/27 03:27:52;;;;;;;11.07;9.13;;;;;;;10.85;93.80;100259.63;5051476;28;20190;-74
2021/10/27 03:30:18;;;;;;;9.25;8.18;;;;;;;10.99;94.04;100253.53;5050527;28;20253;-75
2021/10/27 03:32:45;;;;;;;10.98;9.70;;;;;;;11.15;92.33;100257.25;5051031;28;20291;-74
2021/10/27 03:35:12;;;;;;;10.35;8.45;;;;;;;11.35;90.76;100261.63;5050567;28;20189;-74
2021/10/27 03:37:40;;;;;;;11.05;8.77;;;;;;;11.38;90.18;100260.59;5051185;28;20204;-74
2021/10/27 03:40:07;;;;;;;15.05;9.52;;;;;;;11.37;90.78;100256.16;5050723;28;20185;-74
2021/10/27 03:42:34;;;;;;;11.55;8.07;;;;;;;11.38;89.68;100257.91;5053390;28;20201;-74
2021/10/27 03:45:01;;;;;;;10.73;9.05;;;;;;;11.06;91.75;100261.28;5055260;28;20220;-73
2021/10/27 03:47:27;;;;;;;11.23;8.95;;;;;;;10.97;93.68;100256.34;5047532;28;20515;-74
2021/10/27 03:49:54;;;;;;;12.35;8.65;;;;;;;10.98;94.06;100252.69;5055509;28;20193;-72
2021/10/27 03:52:21;;;;;;;13.98;9.48;;;;;;;11.09;93.36;100251.28;5054491;28;20211;-72
2021/10/27 03:54:49;;;;;;;10.52;9.00;;;;;;;11.05;93.28;100256.81;5054906;28;20181;-72
2021/10/27 03:57:15;;;;;;;10.02;9.00;;;;;;;10.95;94.17;100251.97;5054950;28;20560;-73
2021/10/27 03:59:42;;;;;;;10.82;8.88;;;;;;;11.00;94.20;100258.88;5054884;28;20186;-72
2021/10/27 04:02:09;;;;;;;16.15;9.50;;;;;;;11.04;94.17;100259.59;5054625;28;20271;-73
2021/10/27 04:04:35;;;;;;;9.68;8.68;;;;;;;10.99;94.17;100259.84;5054989;28;20200;-74
2021/10/27 04:07:02;;;;;;;12.15;8.82;;;;;;;10.98;94.67;100255.38;5054331;28;20201;-73
2021/10/27 04:09:29;;;;;;;14.30;9.65;;;;;;;10.89;94.99;100263.03;5054925;28;20205;-74
2021/10/27 04:11:57;;;;;;;13.52;8.65;;;;;;;10.69;97.15;100261.31;5054594;28;20185;-74
2021/10/27 04:14:24;;;;;;;11.57;9.00;;;;;;;10.86;96.88;100266.75;5054816;28;20529;-74
2021/10/27 04:16:51;;;;;;;15.00;9.20;;;;;;;10.94;96.23;100269.94;5054026;28;20191;-74
2021/10/27 04:19:17;;;;;;;10.82;9.20;;;;;;;11.00;94.89;100266.09;5053959;28;20185;-74
2021/10/27 04:21:44;;;;;;;11.18;8.90;;;;;;;10.94;95.09;100269.94;5054153;28;20193;-74
2021/10/27 04:24:11;;;;;;;12.40;8.82;;;;;;;11.02;95.09;100270.44;5054359;28;20336;-74
2021/10/27 04:26:37;;;;;;;11.88;9.35;;;;;;;11.01;95.46;100278.59;5054369;28;20272;-74
2021/10/27 04:29:05;;;;;;;12.55;9.57;;;;;;;11.21;94.22;100272.22;5053872;28;20229;-74
2021/10/27 04:31:32;;;;;;;14.20;8.93;;;;;;;11.31;93.53;100278.91;5053600;28;20191;-74
2021/10/27 04:33:59;;;;;;;11.57;8.70;;;;;;;11.34;92.61;100280.56;5053881;28;20193;-74
2021/10/27 04:36:26;;;;;;;9.40;8.45;;;;;;;11.27;92.50;100280.88;5054100;28;20284;-73
2021/10/27 04:38:53;;;;;;;9.15;7.65;;;;;;;11.26;92.43;100283.63;5053629;28;20193;-71
2021/10/27 04:41:19;;;;;;;11.90;8.90;;;;;;;11.12;93.44;100278.06;5053909;28;20526;-74
2021/10/27 04:43:46;;;;;;;10.10;8.30;;;;;;;11.17;93.53;100274.22;5053883;28;20300;-74
2021/10/27 04:46:14;;;;;;;11.27;9.18;;;;;;;11.15;93.41;100280.63;5053747;28;20200;-74
2021/10/27 04:48:40;;;;;;;10.65;8.93;;;;;;;11.11;94.36;100281.72;5052091;28;20699;-74
2021/10/27 04:51:07;;;;;;;11.20;8.93;;;;;;;11.20;93.81;100283.97;5053326;28;20556;-73
2021/10/27 04:53:34;;;;;;;13.02;10.98;;;;;;;11.33;93.04;100293.19;5053296;28;20280;-73
2021/10/27 04:56:00;;;;;;;17.23;9.80;;;;;;;11.27;93.10;100285.41;5053500;28;20193;-73
2021/10/27 04:58:30;;;;;;;13.23;9.48;;;;;;;11.29;92.95;100291.59;5053618;28;20655;-74
2021/10/27 05:00:56;;;;;;;14.23;9.70;;;;;;;11.36;92.54;100297.56;5052833;28;20197;-74
2021/10/27 05:03:26;;;;;;;12.63;8.98;;;;;;;11.37;92.75;100292.06;5053728;28;20212;-73
2021/10/27 05:05:56;;;;;;;11.85;9.88;;;;;;;11.22;93.34;100285.63;5054047;28;20197;-74
2021/10/27 05:08:23;;;;;;;10.80;8.85;;;;;;;11.47;91.90;100296.06;5053339;28;20199;-73
2021/10/27 05:10:50;;;;;;;14.10;10.15;;;;;;;11.36;91.78;100284.94;5052310;28;20193;-74
2021/10/27 05:13:19;;;;;;;12.32;9.50;;;;;;;11.38;91.99;100285.75;5053503;28;20196;-74
2021/10/27 05:15:45;;;;;;;14.20;9.32;;;;;;;11.26;93.09;100279.16;5052754;28;20194;-73
2021/10/27 05:18:12;;;;;;;10.75;9.65;;;;;;;11.33;92.77;100292.28;5052574;28;20193;-74
2021/10/27 05:20:40;;;;;;;13.80;9.98;;;;;;;11.15;93.95;100280.63;5052871;28;20696;-73
2021/10/27 05:23:07;;;;;;;14.05;9.68;;;;;;;11.22;94.12;100285.63;5053170;28;20213;-74
2021/10/27 05:25:33;;;;;;;12.02;9.55;;;;;;;11.30;93.98;100293.31;5052798;28;20710;-74
2021/10/27 05:28:00;;;;;;;16.40;11.90;;;;;;;11.31;93.79;100291.53;5052807;28;20201;-72
2021/10/27 05:30:27;;;;;;;11.88;9.40;;;;;;;11.27;93.73;100288.09;5051886;28;20240;-74
2021/10/27 05:32:56;;;;;;;12.07;9.82;;;;;;;11.33;93.62;100282.41;5052839;28;20213;-74
2021/10/27 05:35:24;;;;;;;13.13;9.52;;;;;;;11.39;92.97;100289.31;5052380;28;20193;-74
2021/10/27 05:37:52;;;;;;;11.88;10.05;;;;;;;11.37;92.64;100289.38;5051558;28;20232;-73
2021/10/27 05:40:19;;;;;;;11.95;10.05;;;;;;;11.27;93.54;100288.09;5050545;28;20189;-74
2021/10/27 05:42:46;;;;;;;13.90;11.43;;;;;;;11.18;94.46;100286.72;5052431;28;20312;-75
2021/10/27 05:45:13;;;;;;;10.95;9.57;;;;;;;11.28;94.16;100292.53;5051577;28;20579;-74
2021/10/27 05:47:44;;;;;;;15.30;10.00;;;;;;;11.24;93.91;100291.81;5051364;28;20201;-74
2021/10/27 05:50:25;;;;;;;13.35;9.95;;;;;;;11.17;95.08;100285.00;5051763;28;20194;-74
2021/10/27 05:55:37;;;;;;;14.23;9.82;;;;;;;11.19;95.09;100290.28;5051667;28;20195;-73
2021/10/27 05:58:06;;;;;;;11.55;8.63;;;;;;;11.36;93.59;100295.72;5051848;28;20186;-74
2021/10/27 06:00:33;;;;;;;13.00;10.23;;;;;;;11.29;93.90;100293.44;5052693;28;20289;-74
2021/10/27 06:03:01;;;;;;;15.35;11.43;;;;;;;11.25;94.57;100298.94;5057391;28;20560;-75
2021/10/27 06:05:27;;;;;;;12.77;10.13;;;;;;;11.32;93.89;100295.97;5051550;28;20190;-72
2021/10/27 06:07:55;;;;;;;17.25;12.15;;;;;;;11.36;93.68;100295.72;5052533;28;20530;-73
2021/10/27 06:10:24;;;;;;;13.23;9.68;;;;;;;11.39;92.80;100298.25;5051868;28;20204;-73
2021/10/27 06:12:55;;;;;;;11.25;9.98;;;;;;;11.20;94.08;100292.06;5045213;28;20225;-73
2021/10/27 06:15:23;;;;;;;12.80;10.00;;;;;;;11.30;94.14;100292.47;5051183;28;20196;-73
2021/10/27 06:17:50;;;;;;;14.50;10.10;;;;;;;11.33;93.52;100295.00;5052229;28;20200;-73
2021/10/27 06:20:17;;;;;;;13.68;10.55;;;;;;;11.40;93.19;100286.53;5051879;28;20185;-73
2021/10/27 06:22:44;;;;;;;14.68;10.30;;;;;;;11.63;91.23;100287.19;5058175;28;20219;-74
2021/10/27 06:25:13;;;;;;;11.82;9.65;;;;;;;11.51;91.62;100288.69;5051227;28;20196;-73
2021/10/27 06:27:42;;;;;;;14.45;10.15;;;;;;;11.54;91.89;100282.25;5051602;28;20211;-74
2021/10/27 06:30:13;;;;;;;14.88;10.50;;;;;;;11.46;92.27;100294.31;5050778;28;20221;-73
2021/10/27 06:32:45;;;;;;;13.68;9.40;;;;;;;11.38;92.49;100287.56;5051299;28;20181;-73
2021/10/27 06:35:14;;;;;;;14.27;10.95;;;;;;;11.30;93.30;100290.63;5051292;28;20189;-74
2021/10/27 06:37:54;;;;;;;14.02;9.43;;;;;;;11.17;94.26;100295.78;5051748;28;20194;-74
2021/10/27 06:46:13;;;;;;;16.73;11.18;;;;;;;11.61;92.33;100299.88;5050870;28;20324;-73
2021/10/27 06:48:40;;;;;;;17.33;10.73;;;;;;;11.54;92.09;100310.09;5047368;28;20633;-74
2021/10/27 06:51:07;;;;;;;11.77;10.02;;;;;;;11.71;91.33;100321.84;5049863;28;20198;-73
2021/10/27 06:53:34;;;;;;;13.60;8.55;;;;;;;11.56;91.14;100324.38;5050145;28;20190;-72
2021/10/27 06:56:07;;;;;;;11.85;9.65;;;;;;;11.56;92.04;100320.81;5051120;28;20227;-73
2021/10/27 06:58:42;;;;;;;14.32;10.32;;;;;;;11.58;91.79;100325.19;5044322;28;20195;-74
2021/10/27 07:01:12;;;;;;;16.25;11.25;;;;;;;11.68;91.33;100328.28;5050805;28;20213;-73
2021/10/27 07:03:56;;;;;;;10.35;9.25;;;;;;;11.82;90.20;100332.97;5051733;28;20197;-73
2021/10/27 07:17:20;;;;;;;21.17;11.73;;;;;;;12.13;88.15;100340.38;5050555;28;20196;-73
2021/10/27 07:19:47;;;;;;;24.10;12.32;;;;;;;12.17;88.30;100339.25;5049967;28;20284;-73
2021/10/27 07:22:14;;;;;;;33.53;13.60;;;;;;;12.17;87.84;100343.78;5051157;28;20188;-73
2021/10/27 07:24:41;;;;;;;15.82;10.30;;;;;;;12.26;87.11;100340.59;5050814;28;20213;-73
2021/10/27 07:27:10;;;;;;;14.05;10.30;;;;;;;12.31;86.81;100347.50;5051676;28;20212;-74
2021/10/27 07:29:37;;;;;;;19.08;11.23;;;;;;;12.23;86.73;100338.03;5049939;28;20225;-74
2021/10/27 07:32:07;;;;;;;13.10;10.23;;;;;;;12.35;86.84;100340.09;5050451;28;20216;-74
2021/10/27 07:34:36;;;;;;;12.95;10.20;;;;;;;12.44;85.97;100344.16;5050380;28;20330;-74
2021/10/27 07:40:01;;;;;;;16.77;11.10;;;;;;;12.58;84.94;100346.97;5051606;28;20643;-72
2021/10/27 07:42:29;;;;;;;16.00;10.48;;;;;;;12.36;86.47;100355.34;5049338;28;20196;-72
2021/10/27 07:44:56;;;;;;;14.82;10.38;;;;;;;12.57;84.59;100347.91;5051251;28;20619;-72
2021/10/27 07:47:23;;;;;;;14.80;10.75;;;;;;;12.61;84.48;100346.78;5044869;28;20190;-73
2021/10/27 07:49:49;;;;;;;18.40;9.73;;;;;;;12.67;84.07;100351.84;5049446;28;20228;-72
2021/10/27 07:52:16;;;;;;;12.15;9.80;;;;;;;12.86;82.88;100358.94;5049037;28;20204;-73
2021/10/27 07:54:45;;;;;;;14.57;10.10;;;;;;;12.85;82.02;100358.09;5050473;28;20245;-73
2021/10/27 07:57:12;;;;;;;15.82;9.77;;;;;;;12.73;83.11;100351.53;5047921;28;20198;-73
2021/10/27 07:59:40;;;;;;;15.07;10.50;;;;;;;12.73;83.21;100362.34;5050875;28;20633;-75
2021/10/27 08:02:06;;;;;;;18.48;11.43;;;;;;;12.79;83.40;100366.53;5051166;28;20190;-72
2021/10/27 08:04:33;;;;;;;14.00;10.57;;;;;;;12.83;83.09;100357.28;5050998;28;20225;-73
2021/10/27 08:07:00;;;;;;;17.33;11.27;;;;;;;12.84;83.37;100366.25;5051062;28;20285;-74
2021/10/27 08:09:27;;;;;;;20.48;12.02;;;;;;;12.82;83.44;100360.06;5050944;28;20366;-74
2021/10/27 08:11:54;;;;;;;16.95;11.50;;;;;;;12.87;83.38;100366.13;5051147;28;20241;-74
2021/10/27 08:14:21;;;;;;;16.20;12.55;;;;;;;13.08;82.35;100364.03;5050960;28;20289;-74
2021/10/27 08:16:49;;;;;;;16.10;11.38;;;;;;;13.23;81.94;100371.28;5050380;28;20195;-74
2021/10/27 08:19:15;;;;;;;16.92;12.43;;;;;;;13.19;81.09;100371.53;5051187;28;20209;-75
2021/10/27 08:21:42;;;;;;;17.45;10.98;;;;;;;13.23;80.82;100368.59;5051308;28;20182;-74
2021/10/27 08:24:16;;;;;;;16.48;11.18;;;;;;;13.32;80.46;100368.09;5050773;28;20202;-73
2021/10/27 08:26:50;;;;;;;18.23;10.45;;;;;;;13.42;79.60;100371.13;5050860;28;20182;-75
2021/10/27 08:29:19;;;;;;;16.40;11.43;;;;;;;13.31;80.25;100370.88;5054296;28;20310;-73
2021/10/27 08:31:54;;;;;;;19.77;12.88;;;;;;;13.60;78.91;100371.03;5054610;28;20188;-74
2021/10/27 08:34:33;;;;;;;14.93;11.60;;;;;;;13.14;81.36;100367.25;5054775;28;20185;-73
2021/10/27 08:37:00;;;;;;;19.88;10.88;;;;;;;12.82;83.41;100362.78;5054111;28;20233;-73
2021/10/27 08:39:26;;;;;;;15.13;11.38;;;;;;;12.98;83.38;100357.38;5053977;28;20549;-73
2021/10/27 08:41:53;;;;;;;12.57;10.43;;;;;;;13.24;81.82;100356.78;5053383;28;20620;-73
2021/10/27 08:44:20;;;;;;;15.57;10.70;;;;;;;13.29;81.27;100351.16;5053082;28;20569;-74
2021/10/27 08:46:47;;;;;;;18.92;10.40;;;;;;;13.64;79.20;100348.25;5054019;28;20202;-74
2021/10/27 08:49:17;;;;;;;14.98;10.90;;;;;;;13.64;79.64;100346.41;5050684;28;20206;-73
2021/10/27 08:51:46;;;;;;;17.20;11.50;;;;;;;13.82;78.84;100344.44;5053119;28;20187;-74
2021/10/27 08:54:13;;;;;;;16.25;12.05;;;;;;;13.92;78.28;100347.47;5053514;28;20235;-74
2021/10/27 08:56:41;;;;;;;18.40;11.77;;;;;;;14.16;77.16;100342.41;5053269;28;20227;-74
2021/10/27 08:59:11;;;;;;;22.35;12.88;;;;;;;14.39;75.88;100344.53;5052535;28;20199;-74
2021/10/27 09:01:47;;;;;;;17.35;11.43;;;;;;;14.42;75.79;100337.19;5052896;28;20676;-73
2021/10/27 09:09:56;;;;;;;13.75;10.48;;;;;;;14.71;75.03;100338.09;5051346;28;20196;-73
2021/10/27 09:15:29;;;;;;;16.30;11.38;;;;;;;14.14;77.35;100339.78;5053076;28;20199;-72
2021/10/27 09:34:57;;;;;;;13.57;11.68;;;;;;;13.97;79.46;100321.88;5052978;28;20194;-72
2021/10/27 09:37:50;;;;;;;16.98;10.45;;;;;;;13.95;79.70;100326.50;5049371;28;20227;-73
2021/10/27 10:05:53;;;;;;;11.77;9.23;;;;;;;13.76;82.10;100312.31;5050858;28;20196;-75
2021/10/27 10:08:21;;;;;;;14.93;10.63;;;;;;;13.90;81.63;100312.34;5051485;28;20193;-72
2021/10/27 10:10:49;;;;;;;17.88;10.38;;;;;;;14.03;80.79;100306.19;5050288;28;20204;-74
2021/10/27 10:13:19;;;;;;;16.63;11.23;;;;;;;14.34;78.59;100314.16;5050474;28;20506;-74
2021/10/27 10:15:46;;;;;;;14.20;10.70;;;;;;;14.15;79.69;100310.84;5051452;28;20465;-74
2021/10/27 10:18:13;;;;;;;16.08;10.52;;;;;;;14.30;78.82;100314.47;5051868;28;20203;-73
2021/10/27 10:20:40;;;;;;;12.23;10.40;;;;;;;14.29;78.80;100315.41;5052173;28;20606;-73
2021/10/27 10:23:21;;;;;;;18.77;13.73;;;;;;;14.67;77.52;100313.03;5051737;28;20737;-74
2021/10/27 10:25:54;;;;;;;15.38;10.85;;;;;;;14.62;76.79;100315.16;5051237;28;20200;-75
2021/10/27 10:28:25;;;;;;;13.20;11.18;;;;;;;14.37;78.25;100313.97;5051506;28;20250;-74
2021/10/27 10:30:55;;;;;;;12.73;11.38;;;;;;;14.03;79.95;100314.31;5049247;28;20202;-74
2021/10/27 10:33:36;;;;;;;15.27;11.23;;;;;;;13.81;81.26;100320.16;5050979;28;20536;-74
2021/10/27 10:36:08;;;;;;;17.10;10.63;;;;;;;14.00;80.66;100322.59;5051072;28;20214;-74
2021/10/27 10:41:54;;;;;;;13.70;10.40;;;;;;;14.36;79.73;100316.78;5042523;28;20256;-74
2021/10/27 10:44:59;;;;;;;14.02;9.15;;;;;;;14.04;81.74;100310.63;5047671;28;20719;-74
2021/10/27 10:56:30;;;;;;;13.98;9.15;;;;;;;13.73;83.26;100304.38;4968783;28;20603;-72
2021/10/27 11:22:16;;;;;;;12.48;8.70;;;;;;;14.07;80.33;100295.09;4931549;29;20199;-73
2021/10/27 11:26:10;;;;;;;15.20;9.45;;;;;;;14.38;78.26;100287.75;5027169;28;20194;-74
2021/10/27 11:37:24;;;;;;;11.63;8.30;;;;;;;14.95;75.21;100273.31;5050615;28;20416;-73
2021/10/27 11:39:52;;;;;;;12.02;9.50;;;;;;;15.00;74.89;100258.47;5051128;28;20194;-74
2021/10/27 11:42:40;;;;;;;16.92;10.18;;;;;;;14.99;75.38;100263.97;5050311;28;20211;-76
2021/10/27 11:45:35;;;;;;;9.63;8.40;;;;;;;15.05;73.98;100250.00;5050331;28;20205;-74
2021/10/27 11:48:06;;;;;;;11.70;8.52;;;;;;;14.91;74.52;100252.78;5050365;28;20198;-74
2021/10/27 11:50:36;;;;;;;12.48;9.95;;;;;;;14.92;75.13;100249.09;5050991;28;20189;-74
2021/10/27 11:53:05;;;;;;;8.55;7.75;;;;;;;14.89;74.54;100247.44;5050390;28;20199;-74
2021/10/27 11:55:33;;;;;;;8.75;7.85;;;;;;;14.86;74.27;100252.22;5050427;28;20254;-73
2021/10/27 11:58:01;;;;;;;7.85;7.05;;;;;;;14.84;75.10;100248.75;5047189;28;20304;-74
2021/10/27 12:00:33;;;;;;;10.15;8.40;;;;;;;15.11;73.91;100241.47;5050132;28;20258;-72
2021/10/27 12:03:05;;;;;;;8.75;7.18;;;;;;;15.09;73.46;100234.41;5051596;28;20189;-73
2021/10/27 12:05:40;;;;;;;9.50;8.20;;;;;;;15.01;73.81;100233.09;5054146;28;20219;-73
2021/10/27 12:11:08;;;;;;;8.63;6.35;;;;;;;15.08;73.04;100240.81;5053611;28;20197;-71
2021/10/27 12:16:46;;;;;;;11.63;8.75;;;;;;;15.41;71.59;100232.25;5049313;28;20658;-76
2021/10/27 12:19:19;;;;;;;8.23;6.95;;;;;;;15.18;72.19;100225.66;5054305;28;21041;-73
2021/10/27 12:21:52;;;;;;;7.60;6.45;;;;;;;15.30;71.81;100224.81;5053600;28;20457;-74
2021/10/27 12:24:23;;;;;;;6.35;5.18;;;;;;;15.19;72.02;100220.13;5054112;28;20729;-73
2021/10/27 12:26:59;;;;;;;6.28;5.55;;;;;;;15.38;71.64;100208.03;5053978;28;20224;-73
2021/10/27 12:29:27;;;;;;;7.97;5.40;;;;;;;15.45;70.91;100198.50;5054128;28;20232;-74
2021/10/27 12:32:11;;;;;;;5.68;5.10;;;;;;;15.31;70.58;100210.31;5055059;28;20232;-73
2021/10/27 12:34:47;;;;;;;9.30;6.60;;;;;;;15.41;70.77;100194.25;5054164;28;20311;-73
2021/10/27 12:37:26;;;;;;;5.53;4.50;;;;;;;15.73;69.19;100202.91;5054281;28;20534;-73
2021/10/27 12:39:53;;;;;;;6.40;4.85;;;;;;;15.28;69.69;100198.78;5054834;28;20703;-71
2021/10/27 12:42:19;;;;;;;5.35;4.45;;;;;;;15.29;69.51;100192.38;5054613;28;20201;-73
2021/10/27 12:44:50;;;;;;;6.93;5.13;;;;;;;15.33;70.13;100178.50;5054710;28;20879;-73
2021/10/27 12:47:21;;;;;;;5.47;4.50;;;;;;;15.71;68.37;100182.25;5054218;28;20285;-73
2021/10/27 12:49:51;;;;;;;5.00;4.22;;;;;;;15.77;68.02;100177.28;5053924;28;20205;-73
2021/10/27 12:52:25;;;;;;;5.13;4.63;;;;;;;15.96;67.39;100168.69;5054012;28;20635;-72
2021/10/27 12:55:17;;;;;;;6.63;5.85;;;;;;;16.01;67.18;100166.53;5052860;28;20185;-73
2021/10/27 12:57:51;;;;;;;5.25;4.20;;;;;;;16.24;65.73;100167.56;5052963;28;20232;-72
2021/10/27 13:00:23;;;;;;;9.48;7.20;;;;;;;16.56;65.16;100158.91;5054133;28;20590;-71
2021/10/27 13:06:03;;;;;;;6.20;5.60;;;;;;;17.21;62.69;100151.34;5024883;28;20360;-73
2021/10/27 13:11:30;;;;;;;6.22;4.63;;;;;;;17.30;62.37;100151.50;5026691;28;20213;-73
2021/10/27 13:14:09;;;;;;;6.10;5.45;;;;;;;17.67;61.39;100145.03;5033469;28;20640;-73
2021/10/27 13:17:00;;;;;;;7.55;5.10;;;;;;;17.99;60.03;100139.75;5052795;28;20817;-75
2021/10/27 13:22:23;;;;;;;22.00;16.02;;;;;;;18.32;58.79;100132.56;5053283;28;20203;-74
2021/10/27 13:30:20;;;;;;;5.85;3.83;;;;;;;18.91;56.58;100134.94;5051176;28;20243;-73
2021/10/27 13:32:52;;;;;;;7.93;4.80;;;;;;;19.10;55.87;100131.50;5053046;28;20278;-72
2021/10/27 13:35:19;;;;;;;7.25;5.20;;;;;;;19.12;55.77;100118.59;5053868;28;20184;-74
2021/10/27 13:37:45;;;;;;;6.75;5.18;;;;;;;19.13;55.54;100122.16;5051705;28;20254;-75
2021/10/27 13:40:14;;;;;;;5.95;3.90;;;;;;;19.31;54.48;100126.06;5048231;28;20726;-74
2021/10/27 13:42:45;;;;;;;7.28;4.65;;;;;;;19.25;54.81;100118.41;5040933;28;20553;-74